sensor_id;sensor_type;location;lat;lon;timestamp;temperature;humidity
55777;DHT22;54079;44.540;18.784;2024-03-25T00:00:14;6.40;99.90
55777;DHT22;54079;44.540;18.784;2024-03-25T00:02:41;6.70;99.90
55777;DHT22;54079;44.540;18.784;2024-03-25T00:05:08;6.80;99.90
55777;DHT22;54079;44.540;18.784;2024-03-25T00:07:40;7.00;99.90
55777;DHT22;54079;44.540;18.784;2024-03-25T00:10:06;6.80;99.90
55777;DHT22;54079;44.540;18.784;2024-03-25T00:12:34;6.50;99.90
55777;DHT22;54079;44.540;18.784;2024-03-25T00:15:00;6.20;99.90
55777;DHT22;54079;44.540;18.784;2024-03-25T00:17:26;6.10;99.90
55777;DHT22;54079;44.540;18.784;2024-03-25T00:19:52;5.90;99.90
55777;DHT22;54079;44.540;18.784;2024-03-25T00:22:22;6.00;99.90
55777;DHT22;54079;44.540;18.784;2024-03-25T00:24:50;5.90;99.90
55777;DHT22;54079;44.540;18.784;2024-03-25T00:27:17;6.10;99.90
55777;DHT22;54079;44.540;18.784;2024-03-25T00:29:43;6.20;99.90
55777;DHT22;54079;44.540;18.784;2024-03-25T00:32:10;6.30;99.90
55777;DHT22;54079;44.540;18.784;2024-03-25T00:34:36;6.40;99.90
55777;DHT22;54079;44.540;18.784;2024-03-25T00:37:03;6.20;99.90
55777;DHT22;54079;44.540;18.784;2024-03-25T00:39:30;6.00;99.90
55777;DHT22;54079;44.540;18.784;2024-03-25T00:41:58;5.90;99.90
55777;DHT22;54079;44.540;18.784;2024-03-25T00:44:24;6.00;99.90
55777;DHT22;54079;44.540;18.784;2024-03-25T00:46:50;6.00;99.90
55777;DHT22;54079;44.540;18.784;2024-03-25T00:49:17;6.10;99.90
55777;DHT22;54079;44.540;18.784;2024-03-25T00:51:42;6.20;99.90
55777;DHT22;54079;44.540;18.784;2024-03-25T00:54:08;6.20;99.90
55777;DHT22;54079;44.540;18.784;2024-03-25T00:56:34;6.40;99.90
55777;DHT22;54079;44.540;18.784;2024-03-25T00:59:00;6.30;99.90
55777;DHT22;54079;44.540;18.784;2024-03-25T01:01:30;6.40;99.90
55777;DHT22;54079;44.540;18.784;2024-03-25T01:03:57;6.40;99.90
55777;DHT22;54079;44.540;18.784;2024-03-25T01:06:23;6.50;99.90
55777;DHT22;54079;44.540;18.784;2024-03-25T01:08:50;6.00;99.90
55777;DHT22;54079;44.540;18.784;2024-03-25T01:11:16;5.50;99.90
55777;DHT22;54079;44.540;18.784;2024-03-25T01:13:42;5.80;99.90
55777;DHT22;54079;44.540;18.784;2024-03-25T01:16:08;6.10;99.90
55777;DHT22;54079;44.540;18.784;2024-03-25T01:18:35;6.30;99.90
55777;DHT22;54079;44.540;18.784;2024-03-25T01:21:01;6.50;99.90
55777;DHT22;54079;44.540;18.784;2024-03-25T01:23:27;6.30;99.90
55777;DHT22;54079;44.540;18.784;2024-03-25T01:25:53;6.40;99.90
55777;DHT22;54079;44.540;18.784;2024-03-25T01:28:19;6.40;99.90
55777;DHT22;54079;44.540;18.784;2024-03-25T01:30:45;6.40;99.90
55777;DHT22;54079;44.540;18.784;2024-03-25T01:33:10;6.30;99.90
55777;DHT22;54079;44.540;18.784;2024-03-25T01:35:36;6.60;99.90
55777;DHT22;54079;44.540;18.784;2024-03-25T01:38:03;6.70;99.90
55777;DHT22;54079;44.540;18.784;2024-03-25T01:40:29;6.50;99.90
55777;DHT22;54079;44.540;18.784;2024-03-25T01:43:02;6.40;99.90
55777;DHT22;54079;44.540;18.784;2024-03-25T01:45:33;6.30;99.90
55777;DHT22;54079;44.540;18.784;2024-03-25T01:48:06;6.40;99.90
55777;DHT22;54079;44.540;18.784;2024-03-25T01:50:36;6.40;99.90
55777;DHT22;54079;44.540;18.784;2024-03-25T01:53:03;6.30;99.90
55777;DHT22;54079;44.540;18.784;2024-03-25T01:55:32;5.80;99.90
55777;DHT22;54079;44.540;18.784;2024-03-25T01:57:58;6.10;99.90
55777;DHT22;54079;44.540;18.784;2024-03-25T02:00:25;6.50;99.90
55777;DHT22;54079;44.540;18.784;2024-03-25T02:02:52;6.70;99.90
55777;DHT22;54079;44.540;18.784;2024-03-25T02:05:19;6.80;99.90
55777;DHT22;54079;44.540;18.784;2024-03-25T02:07:46;6.80;99.90
55777;DHT22;54079;44.540;18.784;2024-03-25T02:10:13;6.60;99.90
55777;DHT22;54079;44.540;18.784;2024-03-25T02:12:43;6.60;99.90
55777;DHT22;54079;44.540;18.784;2024-03-25T02:15:10;6.50;99.90
55777;DHT22;54079;44.540;18.784;2024-03-25T02:17:36;6.40;99.90
55777;DHT22;54079;44.540;18.784;2024-03-25T02:20:03;6.30;99.90
55777;DHT22;54079;44.540;18.784;2024-03-25T02:22:41;6.30;99.90
55777;DHT22;54079;44.540;18.784;2024-03-25T02:25:09;6.40;99.90
55777;DHT22;54079;44.540;18.784;2024-03-25T02:27:36;6.70;99.90
55777;DHT22;54079;44.540;18.784;2024-03-25T02:30:07;6.70;99.90
55777;DHT22;54079;44.540;18.784;2024-03-25T02:32:36;6.60;99.90
55777;DHT22;54079;44.540;18.784;2024-03-25T02:35:05;6.50;99.90
55777;DHT22;54079;44.540;18.784;2024-03-25T02:37:32;6.60;99.90
55777;DHT22;54079;44.540;18.784;2024-03-25T02:39:59;6.50;99.90
55777;DHT22;54079;44.540;18.784;2024-03-25T02:42:27;6.60;99.90
55777;DHT22;54079;44.540;18.784;2024-03-25T02:44:57;6.60;99.90
55777;DHT22;54079;44.540;18.784;2024-03-25T02:47:23;6.60;99.90
55777;DHT22;54079;44.540;18.784;2024-03-25T02:49:49;6.30;99.90
55777;DHT22;54079;44.540;18.784;2024-03-25T02:52:15;6.20;99.90
55777;DHT22;54079;44.540;18.784;2024-03-25T02:54:41;6.50;99.90
55777;DHT22;54079;44.540;18.784;2024-03-25T02:57:07;6.60;99.90
55777;DHT22;54079;44.540;18.784;2024-03-25T02:59:33;6.60;99.90
55777;DHT22;54079;44.540;18.784;2024-03-25T03:01:59;6.60;99.90
55777;DHT22;54079;44.540;18.784;2024-03-25T03:04:25;6.20;99.90
55777;DHT22;54079;44.540;18.784;2024-03-25T03:06:51;6.10;99.90
55777;DHT22;54079;44.540;18.784;2024-03-25T03:09:17;6.10;99.90
55777;DHT22;54079;44.540;18.784;2024-03-25T03:11:43;6.40;99.90
55777;DHT22;54079;44.540;18.784;2024-03-25T03:14:09;6.60;99.90
55777;DHT22;54079;44.540;18.784;2024-03-25T03:16:35;6.70;99.90
55777;DHT22;54079;44.540;18.784;2024-03-25T03:19:01;6.70;99.90
55777;DHT22;54079;44.540;18.784;2024-03-25T03:21:27;6.80;99.90
55777;DHT22;54079;44.540;18.784;2024-03-25T03:23:53;6.40;99.90
55777;DHT22;54079;44.540;18.784;2024-03-25T03:26:19;6.30;99.90
55777;DHT22;54079;44.540;18.784;2024-03-25T03:28:45;6.30;99.90
55777;DHT22;54079;44.540;18.784;2024-03-25T03:31:11;6.40;99.90
55777;DHT22;54079;44.540;18.784;2024-03-25T03:33:37;6.30;99.90
55777;DHT22;54079;44.540;18.784;2024-03-25T03:36:03;6.40;99.90
55777;DHT22;54079;44.540;18.784;2024-03-25T03:38:29;6.50;99.90
55777;DHT22;54079;44.540;18.784;2024-03-25T03:40:59;6.30;99.90
55777;DHT22;54079;44.540;18.784;2024-03-25T03:43:26;6.50;99.90
55777;DHT22;54079;44.540;18.784;2024-03-25T03:45:52;6.50;99.90
55777;DHT22;54079;44.540;18.784;2024-03-25T03:48:18;6.40;99.90
55777;DHT22;54079;44.540;18.784;2024-03-25T03:50:44;6.10;99.90
55777;DHT22;54079;44.540;18.784;2024-03-25T03:53:10;6.20;99.90
55777;DHT22;54079;44.540;18.784;2024-03-25T03:55:36;6.30;99.90
55777;DHT22;54079;44.540;18.784;2024-03-25T03:58:03;6.40;99.90
55777;DHT22;54079;44.540;18.784;2024-03-25T04:00:29;6.60;99.90
55777;DHT22;54079;44.540;18.784;2024-03-25T04:02:55;6.10;99.90
55777;DHT22;54079;44.540;18.784;2024-03-25T04:05:21;6.10;99.90
55777;DHT22;54079;44.540;18.784;2024-03-25T04:07:47;6.40;99.90
55777;DHT22;54079;44.540;18.784;2024-03-25T04:10:13;6.40;99.90
55777;DHT22;54079;44.540;18.784;2024-03-25T04:12:39;6.60;99.90
55777;DHT22;54079;44.540;18.784;2024-03-25T04:15:06;6.60;99.90
55777;DHT22;54079;44.540;18.784;2024-03-25T04:17:32;6.60;99.90
55777;DHT22;54079;44.540;18.784;2024-03-25T04:20:00;6.60;99.90
55777;DHT22;54079;44.540;18.784;2024-03-25T04:22:27;6.40;99.90
55777;DHT22;54079;44.540;18.784;2024-03-25T04:24:53;6.50;99.90
55777;DHT22;54079;44.540;18.784;2024-03-25T04:27:19;5.70;99.90
55777;DHT22;54079;44.540;18.784;2024-03-25T04:29:48;5.00;99.90
55777;DHT22;54079;44.540;18.784;2024-03-25T04:32:13;5.20;99.90
55777;DHT22;54079;44.540;18.784;2024-03-25T04:34:39;5.20;99.90
55777;DHT22;54079;44.540;18.784;2024-03-25T04:37:05;4.80;99.90
55777;DHT22;54079;44.540;18.784;2024-03-25T04:39:31;5.10;99.90
55777;DHT22;54079;44.540;18.784;2024-03-25T04:41:57;4.90;99.90
55777;DHT22;54079;44.540;18.784;2024-03-25T04:44:23;5.30;99.90
55777;DHT22;54079;44.540;18.784;2024-03-25T04:46:49;5.50;99.90
55777;DHT22;54079;44.540;18.784;2024-03-25T04:49:15;5.60;99.90
55777;DHT22;54079;44.540;18.784;2024-03-25T04:51:41;5.60;99.90
55777;DHT22;54079;44.540;18.784;2024-03-25T04:54:07;5.90;99.90
55777;DHT22;54079;44.540;18.784;2024-03-25T04:56:33;5.80;99.90
55777;DHT22;54079;44.540;18.784;2024-03-25T04:58:59;5.80;99.90
55777;DHT22;54079;44.540;18.784;2024-03-25T05:01:27;5.70;99.90
55777;DHT22;54079;44.540;18.784;2024-03-25T05:03:53;5.60;99.90
55777;DHT22;54079;44.540;18.784;2024-03-25T05:06:19;5.80;99.90
55777;DHT22;54079;44.540;18.784;2024-03-25T05:08:46;5.90;99.90
55777;DHT22;54079;44.540;18.784;2024-03-25T05:11:12;5.90;99.90
55777;DHT22;54079;44.540;18.784;2024-03-25T05:13:38;6.00;99.90
55777;DHT22;54079;44.540;18.784;2024-03-25T05:16:04;6.00;99.90
55777;DHT22;54079;44.540;18.784;2024-03-25T05:18:30;6.10;99.90
55777;DHT22;54079;44.540;18.784;2024-03-25T05:20:56;6.10;99.90
55777;DHT22;54079;44.540;18.784;2024-03-25T05:23:22;6.10;99.90
55777;DHT22;54079;44.540;18.784;2024-03-25T05:25:48;6.20;99.90
55777;DHT22;54079;44.540;18.784;2024-03-25T05:28:14;6.20;99.90
55777;DHT22;54079;44.540;18.784;2024-03-25T05:30:40;6.10;99.90
55777;DHT22;54079;44.540;18.784;2024-03-25T05:33:06;6.30;99.90
55777;DHT22;54079;44.540;18.784;2024-03-25T05:35:32;6.70;99.90
55777;DHT22;54079;44.540;18.784;2024-03-25T05:38:01;6.90;99.90
55777;DHT22;54079;44.540;18.784;2024-03-25T05:40:26;6.60;99.90
55777;DHT22;54079;44.540;18.784;2024-03-25T05:42:52;6.60;99.90
55777;DHT22;54079;44.540;18.784;2024-03-25T05:45:18;6.70;99.90
55777;DHT22;54079;44.540;18.784;2024-03-25T05:47:44;6.80;99.90
55777;DHT22;54079;44.540;18.784;2024-03-25T05:50:10;6.70;99.90
55777;DHT22;54079;44.540;18.784;2024-03-25T05:52:37;6.80;99.90
55777;DHT22;54079;44.540;18.784;2024-03-25T05:55:03;7.10;99.90
55777;DHT22;54079;44.540;18.784;2024-03-25T05:57:29;7.50;99.90
55777;DHT22;54079;44.540;18.784;2024-03-25T05:59:55;7.90;99.90
55777;DHT22;54079;44.540;18.784;2024-03-25T06:02:21;8.20;99.90
55777;DHT22;54079;44.540;18.784;2024-03-25T06:04:47;8.20;99.90
55777;DHT22;54079;44.540;18.784;2024-03-25T06:07:13;8.20;99.90
55777;DHT22;54079;44.540;18.784;2024-03-25T06:09:39;8.50;99.90
55777;DHT22;54079;44.540;18.784;2024-03-25T06:12:05;8.40;99.90
55777;DHT22;54079;44.540;18.784;2024-03-25T06:14:32;8.90;99.90
55777;DHT22;54079;44.540;18.784;2024-03-25T06:16:58;9.00;99.90
55777;DHT22;54079;44.540;18.784;2024-03-25T06:19:25;8.90;99.90
55777;DHT22;54079;44.540;18.784;2024-03-25T06:21:51;9.50;99.90
55777;DHT22;54079;44.540;18.784;2024-03-25T06:24:17;9.50;99.90
55777;DHT22;54079;44.540;18.784;2024-03-25T06:26:43;9.70;99.90
55777;DHT22;54079;44.540;18.784;2024-03-25T06:29:09;10.00;99.90
55777;DHT22;54079;44.540;18.784;2024-03-25T06:31:35;10.10;99.90
55777;DHT22;54079;44.540;18.784;2024-03-25T06:34:19;10.60;99.90
55777;DHT22;54079;44.540;18.784;2024-03-25T06:36:48;11.00;99.90
55777;DHT22;54079;44.540;18.784;2024-03-25T06:39:14;10.80;99.50
55777;DHT22;54079;44.540;18.784;2024-03-25T06:41:40;11.30;99.90
55777;DHT22;54079;44.540;18.784;2024-03-25T06:44:06;11.70;99.30
55777;DHT22;54079;44.540;18.784;2024-03-25T06:46:33;12.30;98.50
55777;DHT22;54079;44.540;18.784;2024-03-25T06:48:59;12.70;96.50
55777;DHT22;54079;44.540;18.784;2024-03-25T06:51:25;12.60;96.70
55777;DHT22;54079;44.540;18.784;2024-03-25T06:53:51;13.00;97.10
55777;DHT22;54079;44.540;18.784;2024-03-25T06:56:17;13.20;96.10
55777;DHT22;54079;44.540;18.784;2024-03-25T06:58:43;13.50;96.50
55777;DHT22;54079;44.540;18.784;2024-03-25T07:01:10;13.40;95.20
55777;DHT22;54079;44.540;18.784;2024-03-25T07:03:39;13.40;95.90
55777;DHT22;54079;44.540;18.784;2024-03-25T07:06:06;14.20;94.20
55777;DHT22;54079;44.540;18.784;2024-03-25T07:08:32;14.40;94.20
55777;DHT22;54079;44.540;18.784;2024-03-25T07:10:59;14.60;93.70
55777;DHT22;54079;44.540;18.784;2024-03-25T07:13:25;14.60;93.40
55777;DHT22;54079;44.540;18.784;2024-03-25T07:15:51;15.40;92.50
55777;DHT22;54079;44.540;18.784;2024-03-25T07:18:17;15.30;91.30
55777;DHT22;54079;44.540;18.784;2024-03-25T07:20:44;15.00;90.90
55777;DHT22;54079;44.540;18.784;2024-03-25T07:23:10;15.10;90.80
55777;DHT22;54079;44.540;18.784;2024-03-25T07:25:37;17.40;87.60
55777;DHT22;54079;44.540;18.784;2024-03-25T07:28:03;18.40;85.00
55777;DHT22;54079;44.540;18.784;2024-03-25T07:30:30;21.20;77.90
55777;DHT22;54079;44.540;18.784;2024-03-25T07:32:57;25.40;70.20
55777;DHT22;54079;44.540;18.784;2024-03-25T07:35:23;25.60;64.90
55777;DHT22;54079;44.540;18.784;2024-03-25T07:37:49;29.20;60.90
55777;DHT22;54079;44.540;18.784;2024-03-25T07:40:17;31.70;56.70
55777;DHT22;54079;44.540;18.784;2024-03-25T07:42:43;32.50;51.40
55777;DHT22;54079;44.540;18.784;2024-03-25T07:45:09;31.30;50.30
55777;DHT22;54079;44.540;18.784;2024-03-25T07:47:35;34.00;51.60
55777;DHT22;54079;44.540;18.784;2024-03-25T07:50:02;35.70;48.70
55777;DHT22;54079;44.540;18.784;2024-03-25T07:52:28;34.70;46.20
55777;DHT22;54079;44.540;18.784;2024-03-25T07:54:55;36.50;47.20
55777;DHT22;54079;44.540;18.784;2024-03-25T07:57:22;34.90;44.80
55777;DHT22;54079;44.540;18.784;2024-03-25T07:59:47;35.20;44.70
55777;DHT22;54079;44.540;18.784;2024-03-25T08:02:14;36.40;44.90
55777;DHT22;54079;44.540;18.784;2024-03-25T08:04:40;38.70;45.20
55777;DHT22;54079;44.540;18.784;2024-03-25T08:07:06;38.60;43.70
55777;DHT22;54079;44.540;18.784;2024-03-25T08:09:32;39.70;43.90
55777;DHT22;54079;44.540;18.784;2024-03-25T08:11:59;39.20;42.00
55777;DHT22;54079;44.540;18.784;2024-03-25T08:14:25;39.40;43.40
55777;DHT22;54079;44.540;18.784;2024-03-25T08:16:50;40.10;42.70
55777;DHT22;54079;44.540;18.784;2024-03-25T08:19:16;40.70;43.10
55777;DHT22;54079;44.540;18.784;2024-03-25T08:21:43;41.30;42.80
55777;DHT22;54079;44.540;18.784;2024-03-25T08:24:09;42.10;42.50
55777;DHT22;54079;44.540;18.784;2024-03-25T08:26:35;41.40;41.60
55777;DHT22;54079;44.540;18.784;2024-03-25T08:29:01;41.50;42.50
55777;DHT22;54079;44.540;18.784;2024-03-25T08:31:27;40.90;40.80
55777;DHT22;54079;44.540;18.784;2024-03-25T08:33:52;42.50;41.10
55777;DHT22;54079;44.540;18.784;2024-03-25T08:36:18;42.70;40.80
55777;DHT22;54079;44.540;18.784;2024-03-25T08:38:44;41.80;41.40
55777;DHT22;54079;44.540;18.784;2024-03-25T08:41:10;40.40;40.00
55777;DHT22;54079;44.540;18.784;2024-03-25T08:43:36;40.20;40.70
55777;DHT22;54079;44.540;18.784;2024-03-25T08:46:02;40.70;39.40
55777;DHT22;54079;44.540;18.784;2024-03-25T08:48:29;39.60;40.00
55777;DHT22;54079;44.540;18.784;2024-03-25T08:50:55;39.80;40.30
55777;DHT22;54079;44.540;18.784;2024-03-25T08:53:21;40.70;40.90
55777;DHT22;54079;44.540;18.784;2024-03-25T08:55:48;41.00;40.40
55777;DHT22;54079;44.540;18.784;2024-03-25T08:58:14;41.50;40.10
55777;DHT22;54079;44.540;18.784;2024-03-25T09:00:44;41.80;39.70
55777;DHT22;54079;44.540;18.784;2024-03-25T09:03:10;42.00;39.80
55777;DHT22;54079;44.540;18.784;2024-03-25T09:05:39;41.00;39.10
55777;DHT22;54079;44.540;18.784;2024-03-25T09:08:06;41.80;39.80
55777;DHT22;54079;44.540;18.784;2024-03-25T09:10:32;41.80;39.40
55777;DHT22;54079;44.540;18.784;2024-03-25T09:13:16;41.40;39.70
55777;DHT22;54079;44.540;18.784;2024-03-25T09:15:42;42.30;39.20
55777;DHT22;54079;44.540;18.784;2024-03-25T09:18:08;41.30;39.00
55777;DHT22;54079;44.540;18.784;2024-03-25T09:20:34;41.00;39.80
55777;DHT22;54079;44.540;18.784;2024-03-25T09:23:00;40.00;40.00
55777;DHT22;54079;44.540;18.784;2024-03-25T09:25:26;34.60;40.90
55777;DHT22;54079;44.540;18.784;2024-03-25T09:27:52;29.90;43.70
55777;DHT22;54079;44.540;18.784;2024-03-25T09:30:18;27.70;43.40
55777;DHT22;54079;44.540;18.784;2024-03-25T09:32:45;25.40;44.80
55777;DHT22;54079;44.540;18.784;2024-03-25T09:35:11;24.00;47.60
55777;DHT22;54079;44.540;18.784;2024-03-25T09:37:37;22.70;49.40
55777;DHT22;54079;44.540;18.784;2024-03-25T09:40:04;22.00;50.90
55777;DHT22;54079;44.540;18.784;2024-03-25T09:42:55;21.60;51.70
55777;DHT22;54079;44.540;18.784;2024-03-25T09:45:24;21.30;51.20
55777;DHT22;54079;44.540;18.784;2024-03-25T09:47:53;20.50;51.00
55777;DHT22;54079;44.540;18.784;2024-03-25T09:50:20;20.50;53.20
55777;DHT22;54079;44.540;18.784;2024-03-25T09:52:50;20.40;52.70
55777;DHT22;54079;44.540;18.784;2024-03-25T09:55:17;20.90;53.50
55777;DHT22;54079;44.540;18.784;2024-03-25T09:57:43;20.50;54.50
55777;DHT22;54079;44.540;18.784;2024-03-25T10:00:11;20.50;54.10
55777;DHT22;54079;44.540;18.784;2024-03-25T10:02:38;20.30;53.40
55777;DHT22;54079;44.540;18.784;2024-03-25T10:05:05;19.50;54.60
55777;DHT22;54079;44.540;18.784;2024-03-25T10:07:33;19.60;52.70
55777;DHT22;54079;44.540;18.784;2024-03-25T10:09:59;19.60;54.40
55777;DHT22;54079;44.540;18.784;2024-03-25T10:12:28;19.20;52.80
55777;DHT22;54079;44.540;18.784;2024-03-25T10:14:54;18.30;53.80
55777;DHT22;54079;44.540;18.784;2024-03-25T10:17:23;17.80;57.10
55777;DHT22;54079;44.540;18.784;2024-03-25T10:19:49;17.50;57.90
55777;DHT22;54079;44.540;18.784;2024-03-25T10:22:15;17.30;56.20
55777;DHT22;54079;44.540;18.784;2024-03-25T10:24:42;17.30;57.40
55777;DHT22;54079;44.540;18.784;2024-03-25T10:27:18;17.50;57.00
55777;DHT22;54079;44.540;18.784;2024-03-25T10:29:46;17.70;58.10
55777;DHT22;54079;44.540;18.784;2024-03-25T10:32:13;17.40;56.10
55777;DHT22;54079;44.540;18.784;2024-03-25T10:34:40;17.60;56.70
55777;DHT22;54079;44.540;18.784;2024-03-25T10:37:10;17.10;57.30
55777;DHT22;54079;44.540;18.784;2024-03-25T10:40:02;17.50;55.90
55777;DHT22;54079;44.540;18.784;2024-03-25T10:42:31;17.70;57.30
55777;DHT22;54079;44.540;18.784;2024-03-25T10:44:57;17.80;55.30
55777;DHT22;54079;44.540;18.784;2024-03-25T10:47:28;18.00;57.60
55777;DHT22;54079;44.540;18.784;2024-03-25T10:49:57;18.10;54.50
55777;DHT22;54079;44.540;18.784;2024-03-25T10:52:27;18.50;52.70
55777;DHT22;54079;44.540;18.784;2024-03-25T10:54:55;18.70;54.90
55777;DHT22;54079;44.540;18.784;2024-03-25T10:57:21;18.80;52.60
55777;DHT22;54079;44.540;18.784;2024-03-25T10:59:49;18.80;54.70
55777;DHT22;54079;44.540;18.784;2024-03-25T11:02:15;18.80;54.30
55777;DHT22;54079;44.540;18.784;2024-03-25T11:04:44;18.70;50.90
55777;DHT22;54079;44.540;18.784;2024-03-25T11:07:12;19.00;53.70
55777;DHT22;54079;44.540;18.784;2024-03-25T11:09:39;18.80;52.80
55777;DHT22;54079;44.540;18.784;2024-03-25T11:12:06;19.00;53.50
55777;DHT22;54079;44.540;18.784;2024-03-25T11:14:32;19.70;53.70
55777;DHT22;54079;44.540;18.784;2024-03-25T11:17:00;19.90;49.40
55777;DHT22;54079;44.540;18.784;2024-03-25T11:19:27;20.50;53.00
55777;DHT22;54079;44.540;18.784;2024-03-25T11:21:54;20.20;52.20
55777;DHT22;54079;44.540;18.784;2024-03-25T11:24:27;19.70;48.30
55777;DHT22;54079;44.540;18.784;2024-03-25T11:26:54;19.20;50.50
55777;DHT22;54079;44.540;18.784;2024-03-25T11:29:20;19.20;50.40
55777;DHT22;54079;44.540;18.784;2024-03-25T11:31:49;19.00;49.00
55777;DHT22;54079;44.540;18.784;2024-03-25T11:34:15;18.50;49.40
55777;DHT22;54079;44.540;18.784;2024-03-25T11:36:41;18.70;51.00
55777;DHT22;54079;44.540;18.784;2024-03-25T11:39:07;18.50;51.40
55777;DHT22;54079;44.540;18.784;2024-03-25T11:41:41;18.30;49.20
55777;DHT22;54079;44.540;18.784;2024-03-25T11:44:11;18.20;52.50
55777;DHT22;54079;44.540;18.784;2024-03-25T11:46:41;17.80;48.60
55777;DHT22;54079;44.540;18.784;2024-03-25T11:49:11;17.60;49.80
55777;DHT22;54079;44.540;18.784;2024-03-25T11:51:37;17.90;51.50
55777;DHT22;54079;44.540;18.784;2024-03-25T11:54:09;17.90;52.10
55777;DHT22;54079;44.540;18.784;2024-03-25T11:56:37;18.10;50.10
55777;DHT22;54079;44.540;18.784;2024-03-25T11:59:05;18.00;49.60
55777;DHT22;54079;44.540;18.784;2024-03-25T12:01:32;17.70;49.40
55777;DHT22;54079;44.540;18.784;2024-03-25T12:04:15;17.40;50.90
55777;DHT22;54079;44.540;18.784;2024-03-25T12:06:41;17.40;50.70
55777;DHT22;54079;44.540;18.784;2024-03-25T12:09:07;17.10;52.90
55777;DHT22;54079;44.540;18.784;2024-03-25T12:11:52;17.20;51.90
55777;DHT22;54079;44.540;18.784;2024-03-25T12:14:19;17.40;51.80
55777;DHT22;54079;44.540;18.784;2024-03-25T12:16:45;17.60;52.90
55777;DHT22;54079;44.540;18.784;2024-03-25T12:19:11;18.10;52.50
55777;DHT22;54079;44.540;18.784;2024-03-25T12:21:37;17.70;49.70
55777;DHT22;54079;44.540;18.784;2024-03-25T12:24:04;16.30;50.40
55777;DHT22;54079;44.540;18.784;2024-03-25T12:26:31;16.30;51.60
55777;DHT22;54079;44.540;18.784;2024-03-25T12:28:58;16.20;52.80
55777;DHT22;54079;44.540;18.784;2024-03-25T12:31:24;16.10;52.60
55777;DHT22;54079;44.540;18.784;2024-03-25T12:33:50;16.00;51.80
55777;DHT22;54079;44.540;18.784;2024-03-25T12:36:16;16.50;52.40
55777;DHT22;54079;44.540;18.784;2024-03-25T12:38:42;16.70;53.40
55777;DHT22;54079;44.540;18.784;2024-03-25T12:41:10;16.70;53.30
55777;DHT22;54079;44.540;18.784;2024-03-25T12:43:42;17.10;54.50
55777;DHT22;54079;44.540;18.784;2024-03-25T12:46:09;17.40;54.90
55777;DHT22;54079;44.540;18.784;2024-03-25T12:48:36;17.50;52.70
55777;DHT22;54079;44.540;18.784;2024-03-25T12:51:03;17.60;52.20
55777;DHT22;54079;44.540;18.784;2024-03-25T12:53:29;18.00;52.40
55777;DHT22;54079;44.540;18.784;2024-03-25T12:55:54;18.20;53.00
55777;DHT22;54079;44.540;18.784;2024-03-25T12:58:20;17.90;49.70
55777;DHT22;54079;44.540;18.784;2024-03-25T13:00:46;17.50;50.60
55777;DHT22;54079;44.540;18.784;2024-03-25T13:03:13;17.30;50.70
55777;DHT22;54079;44.540;18.784;2024-03-25T13:05:39;17.50;50.60
55777;DHT22;54079;44.540;18.784;2024-03-25T13:08:06;17.30;50.30
55777;DHT22;54079;44.540;18.784;2024-03-25T13:10:32;17.10;51.00
55777;DHT22;54079;44.540;18.784;2024-03-25T13:12:59;16.40;50.70
55777;DHT22;54079;44.540;18.784;2024-03-25T13:15:26;16.40;51.90
55777;DHT22;54079;44.540;18.784;2024-03-25T13:17:54;16.60;52.70
55777;DHT22;54079;44.540;18.784;2024-03-25T13:20:20;17.00;53.60
55777;DHT22;54079;44.540;18.784;2024-03-25T13:22:46;17.40;52.10
55777;DHT22;54079;44.540;18.784;2024-03-25T13:25:13;17.20;50.30
55777;DHT22;54079;44.540;18.784;2024-03-25T13:27:39;17.30;51.70
55777;DHT22;54079;44.540;18.784;2024-03-25T13:30:06;17.80;53.30
55777;DHT22;54079;44.540;18.784;2024-03-25T13:32:32;18.10;51.70
55777;DHT22;54079;44.540;18.784;2024-03-25T13:34:58;17.80;48.70
55777;DHT22;54079;44.540;18.784;2024-03-25T13:37:24;17.60;50.90
55777;DHT22;54079;44.540;18.784;2024-03-25T13:39:52;17.40;48.90
55777;DHT22;54079;44.540;18.784;2024-03-25T13:42:18;17.50;49.80
55777;DHT22;54079;44.540;18.784;2024-03-25T13:44:44;17.80;52.20
55777;DHT22;54079;44.540;18.784;2024-03-25T13:47:10;18.00;50.30
55777;DHT22;54079;44.540;18.784;2024-03-25T13:49:36;17.90;50.40
55777;DHT22;54079;44.540;18.784;2024-03-25T13:52:03;17.70;50.00
55777;DHT22;54079;44.540;18.784;2024-03-25T13:54:30;17.80;51.90
55777;DHT22;54079;44.540;18.784;2024-03-25T13:56:57;17.10;47.10
55777;DHT22;54079;44.540;18.784;2024-03-25T13:59:23;17.30;49.80
55777;DHT22;54079;44.540;18.784;2024-03-25T14:01:49;17.20;49.10
55777;DHT22;54079;44.540;18.784;2024-03-25T14:04:17;17.20;49.60
55777;DHT22;54079;44.540;18.784;2024-03-25T14:06:44;17.30;48.70
55777;DHT22;54079;44.540;18.784;2024-03-25T14:09:26;17.30;48.80
55777;DHT22;54079;44.540;18.784;2024-03-25T14:11:52;17.10;45.50
55777;DHT22;54079;44.540;18.784;2024-03-25T14:14:18;16.80;49.10
55777;DHT22;54079;44.540;18.784;2024-03-25T14:16:44;16.90;48.40
55777;DHT22;54079;44.540;18.784;2024-03-25T14:19:10;16.90;46.00
55777;DHT22;54079;44.540;18.784;2024-03-25T14:21:36;16.00;45.20
55777;DHT22;54079;44.540;18.784;2024-03-25T14:24:04;15.70;49.50
55777;DHT22;54079;44.540;18.784;2024-03-25T14:26:31;15.80;51.80
55777;DHT22;54079;44.540;18.784;2024-03-25T14:28:57;16.10;52.10
55777;DHT22;54079;44.540;18.784;2024-03-25T14:31:25;16.10;52.60
55777;DHT22;54079;44.540;18.784;2024-03-25T14:33:51;16.40;52.80
55777;DHT22;54079;44.540;18.784;2024-03-25T14:36:17;16.40;50.70
55777;DHT22;54079;44.540;18.784;2024-03-25T14:38:43;16.00;49.40
55777;DHT22;54079;44.540;18.784;2024-03-25T14:41:12;16.00;50.50
55777;DHT22;54079;44.540;18.784;2024-03-25T14:43:39;16.30;51.20
55777;DHT22;54079;44.540;18.784;2024-03-25T14:46:05;16.60;49.50
55777;DHT22;54079;44.540;18.784;2024-03-25T14:48:33;16.50;47.60
55777;DHT22;54079;44.540;18.784;2024-03-25T14:50:59;16.90;48.70
55777;DHT22;54079;44.540;18.784;2024-03-25T14:53:24;17.10;48.70
55777;DHT22;54079;44.540;18.784;2024-03-25T14:55:50;17.30;47.40
55777;DHT22;54079;44.540;18.784;2024-03-25T14:58:17;17.40;46.90
55777;DHT22;54079;44.540;18.784;2024-03-25T15:00:43;17.10;47.10
55777;DHT22;54079;44.540;18.784;2024-03-25T15:03:09;17.00;47.60
55777;DHT22;54079;44.540;18.784;2024-03-25T15:05:35;16.80;46.60
55777;DHT22;54079;44.540;18.784;2024-03-25T15:08:01;16.50;45.60
55777;DHT22;54079;44.540;18.784;2024-03-25T15:10:27;16.40;48.40
55777;DHT22;54079;44.540;18.784;2024-03-25T15:12:54;16.60;48.50
55777;DHT22;54079;44.540;18.784;2024-03-25T15:15:20;16.70;48.40
55777;DHT22;54079;44.540;18.784;2024-03-25T15:17:45;16.90;48.90
55777;DHT22;54079;44.540;18.784;2024-03-25T15:20:11;16.80;48.60